Time;durP1;ratioP1;P1;durP2;ratioP2;P2;SDS_P1;SDS_P2;PMS_P1;PMS_P2;Temp;Humidity;BMP_temperature;BMP_pressure;BME280_temperature;BME280_humidity;BME280_pressure;Samples;Min_cycle;Max_cycle;Signal;HPM_P1;HPM_P2
2022/11/14 05:00:26;;;;;;;21.73;14.10;;;4.70;99.90;;;;;;6020977;23;20416;-78
2022/11/14 05:02:53;;;;;;;26.37;15.53;;;4.70;99.90;;;;;;4987447;28;20455;-74
2022/11/14 05:05:20;;;;;;;21.97;13.37;;;4.70;99.90;;;;;;4986892;28;20502;-73
2022/11/14 05:07:47;;;;;;;23.27;13.53;;;4.70;99.90;;;;;;4987756;28;20467;-73
2022/11/14 05:10:14;;;;;;;24.20;14.37;;;4.70;99.90;;;;;;4991826;28;20459;-77
2022/11/14 05:12:40;;;;;;;26.13;15.03;;;4.70;99.90;;;;;;4989670;28;20827;-65
2022/11/14 05:15:08;;;;;;;22.97;14.50;;;4.60;99.90;;;;;;4988883;28;20456;-65
2022/11/14 05:17:36;;;;;;;22.60;15.07;;;4.60;99.90;;;;;;4989946;28;20462;-75
2022/11/14 05:20:04;;;;;;;22.70;14.03;;;4.60;99.90;;;;;;4990986;28;20532;-76
2022/11/14 05:22:31;;;;;;;19.60;13.10;;;4.60;99.90;;;;;;4990503;28;20484;-75
2022/11/14 05:24:57;;;;;;;19.13;12.67;;;4.60;99.90;;;;;;4989697;28;20495;-75
2022/11/14 05:27:24;;;;;;;21.50;12.23;;;4.70;99.90;;;;;;4990199;28;20463;-75
2022/11/14 05:29:51;;;;;;;19.13;12.70;;;4.60;99.90;;;;;;4989851;28;20495;-75
2022/11/14 05:32:18;;;;;;;19.30;12.87;;;4.60;99.90;;;;;;4989893;28;20483;-76
2022/11/14 05:34:46;;;;;;;18.03;11.90;;;4.50;99.90;;;;;;4989427;28;20835;-76
2022/11/14 05:37:13;;;;;;;18.60;12.73;;;4.50;99.90;;;;;;4989831;28;20468;-76
2022/11/14 05:39:40;;;;;;;20.37;12.73;;;4.50;99.90;;;;;;4990167;28;20464;-76
2022/11/14 05:42:06;;;;;;;21.37;13.30;;;4.50;99.90;;;;;;4990558;28;21129;-76
2022/11/14 05:44:33;;;;;;;20.77;12.50;;;4.50;99.90;;;;;;4989663;28;20502;-75
2022/11/14 05:47:00;;;;;;;19.47;12.90;;;4.40;99.90;;;;;;4990905;28;20456;-75
2022/11/14 05:49:27;;;;;;;27.70;12.57;;;4.40;99.90;;;;;;4990717;28;20470;-75
2022/11/14 05:51:55;;;;;;;18.77;12.70;;;4.40;99.90;;;;;;4990287;28;21018;-76
2022/11/14 05:54:21;;;;;;;21.07;13.07;;;4.40;99.90;;;;;;4989980;28;20451;-76
2022/11/14 05:56:48;;;;;;;17.53;12.57;;;4.40;99.90;;;;;;4989538;28;20459;-76
2022/11/14 05:59:15;;;;;;;19.80;12.87;;;4.40;99.90;;;;;;4988481;28;20459;-76
2022/11/14 06:01:42;;;;;;;19.37;12.13;;;4.40;99.90;;;;;;4988270;28;20491;-76
2022/11/14 06:04:09;;;;;;;19.53;12.27;;;4.30;99.90;;;;;;4987557;28;21022;-79
2022/11/14 06:06:35;;;;;;;23.93;12.60;;;4.30;99.90;;;;;;4988398;28;20468;-76
2022/11/14 06:09:04;;;;;;;21.60;12.77;;;4.30;99.90;;;;;;4987579;28;20463;-76
2022/11/14 06:11:30;;;;;;;32.10;17.87;;;4.40;99.90;;;;;;4988159;28;20486;-76
2022/11/14 06:13:57;;;;;;;25.80;17.00;;;4.40;99.90;;;;;;4987765;28;20460;-78
2022/11/14 06:16:24;;;;;;;26.30;17.00;;;4.40;99.90;;;;;;4987682;28;20843;-76
2022/11/14 06:18:53;;;;;;;26.17;16.10;;;4.40;99.90;;;;;;4989948;28;20467;-76
2022/11/14 06:21:21;;;;;;;21.93;15.10;;;4.40;99.90;;;;;;4988997;28;20490;-76
2022/11/14 06:23:49;;;;;;;25.50;13.70;;;4.40;99.90;;;;;;4989510;28;20456;-78
2022/11/14 06:26:21;;;;;;;18.53;12.53;;;4.40;99.90;;;;;;4989207;28;20478;-76
2022/11/14 06:28:48;;;;;;;17.23;11.83;;;4.30;99.90;;;;;;4989534;28;20470;-78
2022/11/14 06:31:16;;;;;;;20.17;11.67;;;4.40;99.90;;;;;;4990012;28;20947;-76
2022/11/14 06:33:42;;;;;;;16.10;11.93;;;4.30;99.90;;;;;;4990154;28;20831;-76
2022/11/14 06:36:10;;;;;;;17.73;11.43;;;4.30;99.90;;;;;;4989023;28;20918;-76
2022/11/14 06:38:39;;;;;;;16.27;12.07;;;4.30;99.90;;;;;;4989799;28;20486;-77
2022/11/14 06:41:07;;;;;;;15.70;11.20;;;4.20;99.90;;;;;;4989444;28;20476;-76
2022/11/14 06:43:36;;;;;;;21.27;13.13;;;4.20;99.90;;;;;;4989652;28;20464;-76
2022/11/14 06:46:04;;;;;;;21.67;12.17;;;4.20;99.90;;;;;;4988601;28;20522;-77
2022/11/14 06:48:32;;;;;;;19.53;13.17;;;4.20;99.90;;;;;;4986697;28;20460;-77
2022/11/14 06:51:00;;;;;;;23.37;14.70;;;4.20;99.90;;;;;;4987212;28;20506;-80
2022/11/14 06:53:29;;;;;;;27.27;15.00;;;4.20;99.90;;;;;;4987393;28;20455;-77
2022/11/14 06:55:58;;;;;;;18.73;13.40;;;4.20;99.90;;;;;;4987170;28;20460;-79
2022/11/14 06:58:26;;;;;;;21.93;12.90;;;4.20;99.90;;;;;;4988098;28;20967;-79
2022/11/14 07:00:55;;;;;;;23.07;14.50;;;4.20;99.90;;;;;;4987173;28;20627;-79
2022/11/14 07:03:22;;;;;;;23.90;15.00;;;4.30;99.90;;;;;;4987332;28;20459;-77
2022/11/14 07:05:49;;;;;;;23.03;14.10;;;4.30;99.90;;;;;;4986468;28;20503;-77
2022/11/14 07:08:15;;;;;;;26.60;15.83;;;4.20;99.90;;;;;;4987251;28;20460;-78
2022/11/14 07:10:42;;;;;;;27.30;16.60;;;4.30;99.90;;;;;;4987227;28;20481;-78
2022/11/14 07:13:10;;;;;;;28.10;17.13;;;4.30;99.90;;;;;;4987299;28;20459;-78
2022/11/14 07:15:37;;;;;;;25.23;15.47;;;4.30;99.90;;;;;;4986493;28;20212;-78
2022/11/14 07:18:05;;;;;;;33.00;16.73;;;4.40;99.90;;;;;;4986648;28;20466;-77
2022/11/14 07:20:32;;;;;;;28.70;17.10;;;4.40;99.90;;;;;;4986528;28;20488;-80
2022/11/14 07:22:59;;;;;;;29.97;17.60;;;4.40;99.90;;;;;;4987200;28;20459;-77
2022/11/14 07:25:25;;;;;;;27.40;19.07;;;4.50;99.90;;;;;;4986498;28;20499;-77
2022/11/14 07:27:52;;;;;;;30.17;17.87;;;4.50;99.90;;;;;;4986575;28;20758;-78
2022/11/14 07:30:19;;;;;;;28.93;17.33;;;4.50;99.90;;;;;;4986637;28;20467;-77
2022/11/14 07:32:46;;;;;;;27.10;16.63;;;4.50;99.90;;;;;;4986008;28;20460;-80
2022/11/14 07:35:14;;;;;;;27.77;16.50;;;4.40;99.90;;;;;;4986106;28;20463;-79
2022/11/14 07:37:41;;;;;;;38.47;19.53;;;4.50;99.90;;;;;;4986339;28;20477;-78
2022/11/14 07:40:09;;;;;;;28.17;16.00;;;4.50;99.90;;;;;;4986828;28;20923;-79
2022/11/14 07:42:35;;;;;;;28.53;16.37;;;4.50;99.90;;;;;;4986824;28;20491;-79
2022/11/14 07:45:02;;;;;;;28.17;15.63;;;4.50;99.90;;;;;;4985846;28;20605;-80
2022/11/14 07:47:29;;;;;;;28.73;16.67;;;4.60;99.90;;;;;;4986515;28;20827;-77
2022/11/14 07:49:56;;;;;;;27.23;16.60;;;4.60;99.90;;;;;;4986537;28;20470;-78
2022/11/14 07:52:24;;;;;;;26.00;16.03;;;4.60;99.90;;;;;;4986465;28;20490;-80
2022/11/14 07:54:51;;;;;;;26.80;16.27;;;4.60;99.90;;;;;;4986098;28;20498;-80
2022/11/14 07:57:18;;;;;;;25.73;15.80;;;4.60;99.90;;;;;;4986245;28;20460;-78
2022/11/14 07:59:44;;;;;;;24.23;14.57;;;4.60;99.90;;;;;;4986594;28;20493;-77
2022/11/14 08:02:13;;;;;;;24.83;15.43;;;4.70;99.90;;;;;;4986102;28;20979;-79
2022/11/14 08:04:40;;;;;;;30.27;16.90;;;4.70;99.90;;;;;;4985609;28;20541;-78
2022/11/14 08:07:07;;;;;;;30.23;16.53;;;4.70;99.90;;;;;;4986153;28;20841;-79
2022/11/14 08:09:35;;;;;;;27.20;17.00;;;4.60;99.90;;;;;;4985989;28;20982;-78
2022/11/14 08:12:02;;;;;;;28.73;16.47;;;4.60;99.90;;;;;;4985665;28;20531;-78
2022/11/14 08:14:29;;;;;;;30.17;18.57;;;4.60;99.90;;;;;;4985307;28;20813;-77
2022/11/14 08:16:56;;;;;;;29.60;16.87;;;4.70;99.90;;;;;;4986104;28;20467;-81
2022/11/14 08:19:22;;;;;;;31.40;17.30;;;4.70;99.90;;;;;;4985930;28;20978;-77
2022/11/14 08:21:49;;;;;;;30.43;16.63;;;4.70;99.90;;;;;;4985708;28;20475;-78
2022/11/14 08:24:16;;;;;;;28.17;18.13;;;4.70;99.90;;;;;;4985068;28;20751;-80
2022/11/14 08:26:44;;;;;;;36.10;20.00;;;4.80;99.90;;;;;;4986182;28;20475;-77
2022/11/14 08:29:11;;;;;;;27.70;18.10;;;4.90;99.90;;;;;;4985946;28;20463;-78
2022/11/14 08:31:37;;;;;;;30.07;18.83;;;4.90;99.90;;;;;;4985559;28;20479;-78
2022/11/14 08:34:04;;;;;;;28.80;18.00;;;5.00;99.90;;;;;;4985538;28;20831;-80
2022/11/14 08:36:31;;;;;;;31.33;18.20;;;5.10;99.90;;;;;;4985953;28;20455;-78
2022/11/14 08:38:58;;;;;;;30.80;17.63;;;5.10;99.90;;;;;;4985478;28;20460;-77
2022/11/14 08:41:25;;;;;;;27.73;17.53;;;5.20;99.90;;;;;;4985584;28;20483;-83
2022/11/14 08:43:53;;;;;;;25.00;17.03;;;5.20;99.90;;;;;;4988224;28;20451;-78
2022/11/14 08:46:19;;;;;;;29.07;17.53;;;5.20;99.90;;;;;;4989128;28;20495;-78
2022/11/14 08:48:46;;;;;;;29.30;17.43;;;5.40;99.90;;;;;;4989450;28;20989;-79
2022/11/14 08:51:13;;;;;;;29.57;19.40;;;5.40;99.90;;;;;;4989406;28;20479;-79
2022/11/14 08:53:40;;;;;;;27.60;18.27;;;5.50;99.90;;;;;;4989745;28;20463;-78
2022/11/14 08:56:08;;;;;;;30.00;18.37;;;5.60;99.90;;;;;;4989148;28;20456;-79
2022/11/14 08:58:35;;;;;;;25.90;17.30;;;5.60;99.90;;;;;;4989724;28;20471;-80
2022/11/14 09:01:05;;;;;;;27.17;17.50;;;5.70;99.90;;;;;;4989512;28;20514;-79
2022/11/14 09:03:32;;;;;;;27.50;17.30;;;5.80;99.90;;;;;;4989854;28;20608;-78
2022/11/14 09:05:59;;;;;;;32.27;18.83;;;5.90;99.90;;;;;;4988655;28;20875;-79
2022/11/14 09:08:26;;;;;;;29.63;17.37;;;5.90;99.90;;;;;;4989673;28;20555;-77
2022/11/14 09:10:53;;;;;;;27.33;16.43;;;6.00;99.90;;;;;;4989320;28;20479;-78
2022/11/14 09:13:20;;;;;;;30.80;18.23;;;6.10;99.90;;;;;;4989412;28;20468;-78
2022/11/14 09:15:46;;;;;;;32.63;18.70;;;6.10;99.90;;;;;;4989267;28;20520;-78
2022/11/14 09:18:15;;;;;;;40.27;22.93;;;6.20;99.90;;;;;;4989021;28;20461;-78
2022/11/14 09:20:42;;;;;;;32.77;19.50;;;6.30;99.90;;;;;;4988431;28;20479;-80
2022/11/14 09:23:10;;;;;;;27.50;17.50;;;6.40;99.90;;;;;;4989072;28;20478;-78
2022/11/14 09:25:37;;;;;;;36.17;18.20;;;6.40;99.90;;;;;;4988716;28;20506;-79
2022/11/14 09:28:05;;;;;;;28.93;18.50;;;6.50;99.90;;;;;;4989178;28;20522;-80
2022/11/14 09:30:32;;;;;;;31.73;20.40;;;6.50;99.90;;;;;;4988952;28;21003;-80
2022/11/14 09:33:00;;;;;;;32.07;18.50;;;6.60;99.90;;;;;;4988896;28;20459;-80
2022/11/14 09:35:29;;;;;;;26.80;18.00;;;6.80;99.90;;;;;;4988524;28;20459;-79
2022/11/14 09:38:00;;;;;;;25.03;15.27;;;6.90;99.90;;;;;;4989299;28;20470;-81
2022/11/14 09:40:27;;;;;;;22.50;14.17;;;6.90;99.90;;;;;;4988744;28;20465;-78
2022/11/14 09:43:18;;;;;;;26.63;15.50;;;6.90;99.90;;;;;;4991022;28;20455;-82
2022/11/14 09:45:50;;;;;;;26.10;15.83;;;6.90;99.90;;;;;;4992333;28;20487;-83
2022/11/14 09:48:21;;;;;;;28.07;15.37;;;7.00;99.90;;;;;;4991819;28;20912;-81
2022/11/14 09:50:58;;;;;;;26.83;15.97;;;7.00;99.90;;;;;;4992425;28;20498;-77
2022/11/14 09:53:31;;;;;;;23.63;14.00;;;7.10;99.90;;;;;;4989155;28;20727;-78
2022/11/14 09:55:59;;;;;;;26.80;15.73;;;7.10;99.90;;;;;;4986390;28;20948;-78
2022/11/14 09:58:27;;;;;;;27.90;16.07;;;7.20;99.90;;;;;;4988164;28;21291;-78
2022/11/14 10:01:00;;;;;;;25.63;14.13;;;7.20;99.90;;;;;;4988206;28;20494;-82
2022/11/14 10:03:38;;;;;;;23.97;13.30;;;7.30;99.90;;;;;;4988799;28;20465;-78
2022/11/14 10:06:21;;;;;;;26.50;12.57;;;7.30;99.90;;;;;;4988267;28;20506;-79
2022/11/14 10:09:00;;;;;;;21.40;13.47;;;7.30;99.90;;;;;;4989156;28;20455;-81
2022/11/14 10:11:33;;;;;;;20.33;13.07;;;7.40;99.90;;;;;;4988656;28;20490;-79
2022/11/14 10:14:27;;;;;;;23.07;13.30;;;7.50;99.90;;;;;;4988865;28;20726;-78
2022/11/14 10:17:05;;;;;;;22.40;13.87;;;7.50;99.90;;;;;;4988630;28;20995;-81
2022/11/14 10:19:41;;;;;;;21.00;13.17;;;7.60;99.90;;;;;;4988699;28;20837;-79
2022/11/14 10:22:33;;;;;;;24.60;12.27;;;7.70;99.90;;;;;;4987947;28;20475;-81
2022/11/14 10:25:18;;;;;;;20.47;12.47;;;7.70;99.90;;;;;;4988060;28;20445;-79
2022/11/14 10:27:58;;;;;;;22.33;12.70;;;7.80;99.90;;;;;;4988333;28;20456;-78
2022/11/14 10:30:35;;;;;;;16.50;10.90;;;7.90;99.90;;;;;;4987970;28;20630;-80
2022/11/14 10:33:19;;;;;;;16.00;10.30;;;7.90;99.90;;;;;;4987960;28;20932;-78
2022/11/14 10:35:53;;;;;;;16.10;9.57;;;8.00;99.90;;;;;;4987380;28;20901;-80
2022/11/14 10:38:28;;;;;;;14.27;9.87;;;8.00;99.90;;;;;;4987775;28;20916;-78
2022/11/14 10:41:00;;;;;;;14.00;9.17;;;8.10;99.90;;;;;;4988367;28;20483;-78
2022/11/14 10:43:33;;;;;;;16.10;9.43;;;8.10;99.90;;;;;;4987501;28;20831;-78
2022/11/14 10:46:04;;;;;;;16.70;9.03;;;8.20;99.90;;;;;;4986967;28;21316;-79
2022/11/14 10:48:33;;;;;;;13.07;8.87;;;8.30;99.90;;;;;;4988158;28;20452;-79
2022/11/14 10:51:03;;;;;;;13.37;8.70;;;8.40;99.90;;;;;;4987950;28;20480;-78
2022/11/14 10:53:43;;;;;;;15.50;8.27;;;8.40;99.90;;;;;;4987756;28;20566;-79
2022/11/14 10:56:12;;;;;;;14.40;8.13;;;8.50;99.90;;;;;;4987213;28;20948;-79
2022/11/14 10:58:39;;;;;;;11.13;7.53;;;8.60;99.90;;;;;;4987212;28;20466;-79
2022/11/14 11:01:36;;;;;;;10.90;7.20;;;8.60;99.90;;;;;;4987663;28;20510;-78
2022/11/14 11:04:14;;;;;;;8.90;6.47;;;8.80;99.90;;;;;;4987248;28;20960;-79
2022/11/14 11:06:40;;;;;;;11.00;7.80;;;8.80;99.90;;;;;;4987628;28;20939;-79
2022/11/14 11:12:00;;;;;;;12.90;6.83;;;8.90;99.90;;;;;;4987988;28;20458;-85
2022/11/14 11:14:27;;;;;;;9.13;6.60;;;9.00;99.90;;;;;;4987467;28;20630;-80
2022/11/14 11:17:08;;;;;;;12.40;7.40;;;9.10;99.90;;;;;;4988282;28;20463;-80
2022/11/14 11:19:36;;;;;;;10.70;7.57;;;9.10;99.90;;;;;;4987689;28;20592;-80
2022/11/14 11:22:02;;;;;;;8.80;6.67;;;9.20;99.90;;;;;;4987981;28;20479;-79
2022/11/14 11:24:35;;;;;;;9.80;6.67;;;9.30;99.90;;;;;;4987752;28;20959;-79
2022/11/14 11:27:21;;;;;;;6.93;5.40;;;9.30;99.90;;;;;;4988360;28;20505;-81
2022/11/14 11:30:04;;;;;;;7.90;5.27;;;9.40;99.90;;;;;;4988075;28;20467;-82
2022/11/14 11:32:31;;;;;;;7.73;5.73;;;9.40;99.90;;;;;;4985691;28;20491;-79
2022/11/14 11:35:02;;;;;;;9.57;5.40;;;9.50;99.90;;;;;;4986838;28;20467;-78
2022/11/14 11:37:32;;;;;;;9.67;5.50;;;9.60;99.90;;;;;;4987326;28;20488;-78
2022/11/14 11:40:04;;;;;;;6.50;5.10;;;9.60;99.90;;;;;;4987348;28;20471;-83
2022/11/14 11:42:38;;;;;;;7.40;5.27;;;9.70;99.90;;;;;;4986744;28;20787;-78
2022/11/14 11:45:14;;;;;;;6.87;5.23;;;9.80;99.90;;;;;;4986548;28;20463;-80
2022/11/14 11:47:42;;;;;;;6.27;4.93;;;9.80;99.90;;;;;;4986784;28;20518;-81
2022/11/14 11:50:15;;;;;;;6.67;5.43;;;9.90;99.90;;;;;;4986289;28;20656;-77
2022/11/14 11:52:48;;;;;;;7.67;5.40;;;10.00;99.90;;;;;;4986153;28;20448;-78
2022/11/14 11:55:21;;;;;;;7.80;5.40;;;10.10;99.90;;;;;;4986079;28;20474;-78
2022/11/14 11:57:52;;;;;;;6.50;4.50;;;10.10;99.90;;;;;;4986470;28;20448;-78
2022/11/14 12:00:21;;;;;;;6.00;4.40;;;10.20;99.90;;;;;;4986283;28;20446;-78
2022/11/14 12:02:51;;;;;;;4.10;3.70;;;10.30;99.90;;;;;;4986707;28;20927;-78
2022/11/14 12:05:25;;;;;;;5.70;4.37;;;10.40;99.90;;;;;;4988279;28;20456;-80
2022/11/14 12:08:00;;;;;;;4.50;3.30;;;10.50;99.90;;;;;;4988963;28;20461;-79
2022/11/14 12:10:32;;;;;;;4.30;3.47;;;10.60;99.90;;;;;;4988741;28;20462;-79
2022/11/14 12:13:36;;;;;;;3.10;2.70;;;10.70;99.90;;;;;;4987974;28;20456;-78
2022/11/14 12:16:35;;;;;;;3.67;2.23;;;10.90;99.90;;;;;;4985480;28;20465;-78
2022/11/14 12:19:25;;;;;;;2.80;2.20;;;11.10;99.90;;;;;;4985771;28;20450;-79
2022/11/14 12:22:30;;;;;;;3.20;2.20;;;11.20;99.90;;;;;;4985930;28;20992;-79
2022/11/14 12:25:18;;;;;;;2.27;2.17;;;11.30;99.90;;;;;;4970080;28;20482;-78
2022/11/14 12:28:04;;;;;;;2.10;1.90;;;11.40;99.90;;;;;;4986073;28;20454;-79
2022/11/14 12:30:34;;;;;;;2.37;2.17;;;11.50;99.90;;;;;;4986108;28;20467;-79
2022/11/14 12:33:05;;;;;;;2.27;2.07;;;11.50;99.90;;;;;;4986211;28;20759;-78
2022/11/14 12:35:34;;;;;;;2.40;1.87;;;11.50;99.90;;;;;;4985284;28;20912;-78
2022/11/14 12:38:04;;;;;;;2.27;1.97;;;11.60;99.90;;;;;;4985794;28;20467;-79
2022/11/14 12:40:33;;;;;;;2.10;1.70;;;11.60;99.90;;;;;;4985784;28;20451;-80
2022/11/14 12:43:03;;;;;;;2.30;2.00;;;11.60;99.90;;;;;;4986044;28;20464;-78
2022/11/14 12:45:56;;;;;;;2.17;1.90;;;11.60;99.90;;;;;;4985166;28;20472;-79
2022/11/14 12:48:29;;;;;;;2.30;1.90;;;11.60;99.90;;;;;;4986048;28;20440;-82
2022/11/14 12:50:57;;;;;;;3.33;2.30;;;11.60;99.90;;;;;;4985454;28;21002;-79
2022/11/14 12:53:43;;;;;;;2.93;2.10;;;11.60;99.90;;;;;;4985636;28;20957;-78
2022/11/14 12:57:00;;;;;;;3.57;2.00;;;11.70;99.90;;;;;;4985262;28;20455;-78
2022/11/14 12:59:48;;;;;;;2.67;1.83;;;11.70;99.90;;;;;;4985528;28;21174;-79
2022/11/14 13:02:47;;;;;;;2.50;1.83;;;11.80;99.90;;;;;;4988063;28;20498;-80
2022/11/14 13:05:28;;;;;;;2.20;2.00;;;11.80;99.90;;;;;;4988814;28;20448;-83
2022/11/14 13:08:09;;;;;;;3.70;2.30;;;11.90;99.90;;;;;;4990449;28;20439;-82
2022/11/14 13:10:38;;;;;;;2.47;2.27;;;12.10;99.90;;;;;;4986886;28;20471;-78
2022/11/14 13:22:16;;;;;;;2.10;1.90;;;12.80;99.90;;;;;;4944401;29;20521;-78
2022/11/14 13:25:18;;;;;;;2.00;1.70;;;13.00;99.90;;;;;;4976893;28;20963;-84
2022/11/14 13:27:45;;;;;;;2.63;1.67;;;13.20;99.90;;;;;;4981211;28;20498;-79
2022/11/14 13:30:11;;;;;;;3.90;2.80;;;13.30;99.90;;;;;;4987980;28;20456;-83
2022/11/14 13:33:03;;;;;;;3.60;2.20;;;13.50;99.90;;;;;;4989213;28;20455;-81
2022/11/14 13:35:48;;;;;;;2.87;2.20;;;13.60;99.90;;;;;;4988577;28;20699;-80
2022/11/14 13:39:04;;;;;;;2.10;1.90;;;13.60;99.90;;;;;;4988115;28;20489;-81
2022/11/14 13:41:59;;;;;;;3.27;2.00;;;13.60;99.90;;;;;;4988157;28;20564;-82
2022/11/14 13:45:06;;;;;;;4.73;3.20;;;13.70;99.90;;;;;;4987375;28;20460;-78
2022/11/14 13:47:59;;;;;;;6.70;2.00;;;13.80;99.90;;;;;;4988095;28;20494;-78
2022/11/14 13:50:31;;;;;;;4.23;2.77;;;13.90;99.90;;;;;;4987688;28;20836;-80
2022/11/14 13:52:59;;;;;;;3.17;2.40;;;14.00;99.90;;;;;;4987562;28;20444;-78
2022/11/14 13:55:34;;;;;;;3.00;2.13;;;14.00;99.90;;;;;;4987291;28;20467;-78
2022/11/14 13:58:24;;;;;;;5.23;2.57;;;14.00;99.90;;;;;;4987271;28;20450;-80
2022/11/14 14:01:05;;;;;;;2.23;1.80;;;14.10;99.90;;;;;;4987482;28;20498;-82
2022/11/14 14:03:52;;;;;;;3.97;2.70;;;14.10;99.90;;;;;;4989529;28;20956;-82
2022/11/14 14:06:44;;;;;;;3.90;2.47;;;14.20;99.90;;;;;;4989174;28;21013;-80
2022/11/14 14:09:20;;;;;;;3.90;2.20;;;14.20;99.90;;;;;;4988551;28;20439;-79
2022/11/14 14:12:03;;;;;;;2.33;2.10;;;14.20;99.90;;;;;;4987177;28;20988;-77
2022/11/14 14:14:51;;;;;;;4.43;2.20;;;14.30;99.90;;;;;;4986758;28;20440;-79
2022/11/14 14:17:25;;;;;;;2.40;1.90;;;14.30;99.90;;;;;;4987731;28;20435;-78
2022/11/14 14:20:05;;;;;;;2.40;1.77;;;14.30;99.90;;;;;;4987621;28;20456;-78
2022/11/14 14:22:40;;;;;;;3.80;2.20;;;14.40;99.90;;;;;;4988118;28;20570;-77
2022/11/14 14:25:18;;;;;;;2.40;1.97;;;14.40;99.90;;;;;;4987364;28;20459;-77
2022/11/14 14:27:55;;;;;;;2.33;1.80;;;14.50;99.90;;;;;;4987604;28;20506;-77
2022/11/14 14:30:25;;;;;;;2.60;1.93;;;14.50;99.90;;;;;;4987906;28;20444;-77
2022/11/14 14:33:19;;;;;;;3.87;2.30;;;14.50;99.90;;;;;;4987854;28;20982;-77
2022/11/14 14:35:53;;;;;;;2.87;2.20;;;14.50;99.90;;;;;;4952307;28;20956;-78
2022/11/14 14:38:26;;;;;;;5.90;2.33;;;14.50;99.90;;;;;;4987663;28;20456;-78
2022/11/14 14:40:55;;;;;;;2.63;2.20;;;14.60;99.90;;;;;;4987385;28;20475;-79
2022/11/14 14:43:26;;;;;;;2.80;2.00;;;14.60;99.90;;;;;;4987813;28;20459;-78
2022/11/14 14:45:54;;;;;;;2.80;2.10;;;14.60;99.90;;;;;;4987450;28;20440;-78
2022/11/14 14:48:25;;;;;;;3.80;2.17;;;14.60;99.90;;;;;;4987798;28;20447;-79
2022/11/14 14:50:53;;;;;;;3.20;2.57;;;14.60;99.90;;;;;;4987438;28;20949;-78
2022/11/14 14:53:22;;;;;;;3.13;2.20;;;14.60;99.90;;;;;;4987597;28;20460;-77
2022/11/14 14:55:55;;;;;;;3.13;2.17;;;14.60;99.90;;;;;;4986928;28;20463;-78
2022/11/14 14:58:28;;;;;;;5.43;3.93;;;14.60;99.90;;;;;;4987397;28;20451;-77
2022/11/14 15:00:58;;;;;;;3.87;2.50;;;14.60;99.90;;;;;;4987035;28;20487;-77
2022/11/14 15:03:29;;;;;;;2.50;2.17;;;14.60;99.90;;;;;;4987167;28;20800;-78
2022/11/14 15:06:00;;;;;;;3.57;2.00;;;14.60;99.90;;;;;;4986636;28;20844;-78
2022/11/14 15:08:28;;;;;;;4.23;2.70;;;14.50;99.90;;;;;;4987446;28;20456;-77
2022/11/14 15:10:59;;;;;;;5.57;2.50;;;14.50;99.90;;;;;;4987427;28;20814;-79
2022/11/14 15:13:29;;;;;;;2.87;2.30;;;14.50;99.90;;;;;;4987647;28;20483;-68
2022/11/14 15:15:58;;;;;;;5.00;2.40;;;14.40;99.90;;;;;;4986665;28;20819;-68
2022/11/14 15:18:26;;;;;;;3.17;2.23;;;14.30;99.90;;;;;;4987143;28;20456;-68
2022/11/14 15:21:17;;;;;;;2.40;2.20;;;14.30;99.90;;;;;;4986770;28;20880;-70
2022/11/14 15:23:46;;;;;;;2.50;2.30;;;14.20;99.90;;;;;;4987202;28;20448;-77
2022/11/14 15:26:18;;;;;;;7.80;2.60;;;14.10;99.90;;;;;;4986849;28;20463;-77
2022/11/14 15:28:45;;;;;;;3.23;2.80;;;14.10;99.90;;;;;;4987201;28;20814;-78
2022/11/14 15:31:20;;;;;;;7.20;4.47;;;14.10;99.90;;;;;;4986711;28;20480;-78
2022/11/14 15:34:03;;;;;;;8.70;4.80;;;14.10;99.90;;;;;;4986428;28;20474;-81
2022/11/14 15:37:08;;;;;;;7.30;3.37;;;14.00;99.90;;;;;;4987105;28;20462;-77
2022/11/14 15:39:40;;;;;;;9.57;5.07;;;14.00;99.90;;;;;;4986364;28;20464;-76
2022/11/14 15:42:17;;;;;;;3.47;2.80;;;13.90;99.90;;;;;;4986990;28;20490;-77
2022/11/14 15:44:45;;;;;;;3.30;2.87;;;13.80;99.90;;;;;;4984630;28;20489;-78
2022/11/14 15:47:17;;;;;;;7.77;4.73;;;13.80;99.90;;;;;;4986001;28;21070;-77
2022/11/14 15:49:56;;;;;;;5.27;3.60;;;13.80;99.90;;;;;;4986549;28;20439;-76
2022/11/14 15:52:27;;;;;;;6.40;2.97;;;13.80;99.90;;;;;;4985348;28;20476;-77
2022/11/14 15:54:53;;;;;;;10.40;4.30;;;13.70;99.90;;;;;;4985857;28;20836;-76
2022/11/14 15:57:21;;;;;;;6.63;3.70;;;13.70;99.90;;;;;;4986426;28;20482;-77
2022/11/14 15:59:48;;;;;;;4.90;2.80;;;13.70;99.90;;;;;;4986583;28;20468;-76
2022/11/14 16:02:18;;;;;;;3.70;2.97;;;13.60;99.90;;;;;;4986149;28;21142;-77
2022/11/14 16:04:45;;;;;;;4.70;3.83;;;13.60;99.90;;;;;;4985586;28;20838;-77
2022/11/14 16:07:13;;;;;;;3.23;2.93;;;13.60;99.90;;;;;;4985993;28;21010;-76
2022/11/14 16:09:40;;;;;;;5.37;3.03;;;13.60;99.90;;;;;;4985989;28;20466;-76
2022/11/14 16:12:07;;;;;;;4.47;2.93;;;13.50;99.90;;;;;;4985966;28;20482;-76
2022/11/14 16:14:36;;;;;;;4.23;3.07;;;13.50;99.90;;;;;;4985846;28;20461;-77
2022/11/14 16:17:03;;;;;;;5.60;3.27;;;13.50;99.90;;;;;;4984632;28;20459;-75
2022/11/14 16:19:30;;;;;;;3.60;2.60;;;13.50;99.90;;;;;;4985278;28;20542;-73
2022/11/14 16:22:01;;;;;;;4.00;3.03;;;13.50;99.90;;;;;;4985598;28;20476;-74
2022/11/14 16:24:29;;;;;;;4.40;3.23;;;13.40;99.90;;;;;;4985415;28;20952;-74
2022/11/14 16:26:56;;;;;;;3.73;2.90;;;13.40;99.90;;;;;;4985783;28;20722;-74
2022/11/14 16:29:24;;;;;;;6.00;2.80;;;13.40;99.90;;;;;;4985447;28;21038;-78
2022/11/14 16:31:54;;;;;;;3.97;2.80;;;13.40;99.90;;;;;;4985830;28;20480;-75
2022/11/14 16:34:24;;;;;;;4.33;2.80;;;13.40;99.90;;;;;;4985466;28;20460;-76
2022/11/14 16:36:58;;;;;;;3.33;2.43;;;13.30;99.90;;;;;;4985866;28;20962;-75
2022/11/14 16:39:25;;;;;;;6.07;3.10;;;13.30;99.90;;;;;;4985713;28;20458;-73
2022/11/14 16:41:51;;;;;;;2.90;2.57;;;13.30;99.90;;;;;;4985783;28;20494;-77
2022/11/14 16:44:18;;;;;;;3.63;2.70;;;13.30;99.90;;;;;;4985110;28;20990;-73
2022/11/14 16:46:46;;;;;;;3.60;2.90;;;13.30;99.90;;;;;;4985745;28;20459;-74
2022/11/14 16:49:15;;;;;;;5.30;4.00;;;13.20;99.90;;;;;;4985674;28;20461;-74
2022/11/14 16:51:43;;;;;;;6.60;4.30;;;13.20;99.90;;;;;;4985874;28;20479;-74
2022/11/14 16:54:12;;;;;;;9.70;5.90;;;13.20;99.90;;;;;;4984881;28;20471;-77
2022/11/14 16:56:39;;;;;;;10.20;7.17;;;13.20;99.90;;;;;;4985611;28;20468;-74
2022/11/14 16:59:06;;;;;;;8.63;6.50;;;13.20;99.90;;;;;;4985442;28;20463;-75
2022/11/14 17:01:33;;;;;;;7.43;5.90;;;13.20;99.90;;;;;;4985274;28;20488;-75
2022/11/14 17:04:00;;;;;;;6.07;5.47;;;13.10;99.90;;;;;;4985941;28;20467;-76
2022/11/14 17:06:28;;;;;;;6.20;4.70;;;13.10;99.90;;;;;;4989540;28;20467;-74
2022/11/14 17:08:55;;;;;;;7.27;6.20;;;13.10;99.90;;;;;;4989455;28;20499;-73
2022/11/14 17:11:23;;;;;;;11.13;5.83;;;13.10;99.90;;;;;;4989048;28;20483;-74
2022/11/14 17:13:49;;;;;;;10.60;6.97;;;13.10;99.90;;;;;;4989490;28;21247;-78
2022/11/14 17:16:17;;;;;;;8.80;7.00;;;13.10;99.90;;;;;;4989058;28;20812;-73
2022/11/14 17:18:44;;;;;;;8.60;7.17;;;13.00;99.90;;;;;;4989283;28;20836;-74
2022/11/14 17:21:12;;;;;;;7.40;5.77;;;13.00;99.90;;;;;;4988997;28;20486;-73
2022/11/14 17:23:40;;;;;;;10.00;7.83;;;13.10;99.90;;;;;;4989137;28;20460;-74
2022/11/14 17:26:10;;;;;;;9.13;7.07;;;13.00;99.90;;;;;;4988885;28;20808;-74
2022/11/14 17:28:39;;;;;;;7.30;5.10;;;13.00;99.90;;;;;;4990109;28;20498;-74
2022/11/14 17:31:08;;;;;;;4.43;4.03;;;13.00;99.90;;;;;;4990109;28;20952;-75
2022/11/14 17:33:35;;;;;;;7.40;4.70;;;13.00;99.90;;;;;;4990313;28;20466;-75
2022/11/14 17:36:05;;;;;;;5.90;4.03;;;12.90;99.90;;;;;;4989023;28;20819;-74
2022/11/14 17:38:33;;;;;;;5.73;4.77;;;12.90;99.90;;;;;;4989722;28;21015;-74
2022/11/14 17:41:04;;;;;;;6.93;6.13;;;12.90;99.90;;;;;;4992873;28;20486;-80
2022/11/14 17:43:31;;;;;;;8.23;4.70;;;12.90;99.90;;;;;;4995153;28;20448;-80
2022/11/14 17:45:58;;;;;;;10.00;6.50;;;12.90;99.90;;;;;;4994422;28;20455;-80
2022/11/14 17:48:25;;;;;;;11.10;5.90;;;12.80;99.90;;;;;;4994764;28;20495;-81
2022/11/14 17:50:52;;;;;;;14.90;8.47;;;12.80;99.90;;;;;;4993506;28;20587;-80
2022/11/14 17:53:19;;;;;;;33.63;12.50;;;12.70;99.90;;;;;;4992907;28;20541;-78
2022/11/14 17:55:46;;;;;;;13.10;7.57;;;12.70;99.90;;;;;;4993421;28;20459;-81
2022/11/14 17:58:14;;;;;;;7.80;5.70;;;12.70;99.90;;;;;;4993917;28;20451;-80
2022/11/14 18:00:41;;;;;;;10.10;5.37;;;12.70;99.90;;;;;;4993445;28;20545;-80
2022/11/14 18:03:08;;;;;;;8.27;5.00;;;12.60;99.90;;;;;;4993776;28;20870;-80
2022/11/14 18:05:35;;;;;;;6.27;4.67;;;12.50;99.90;;;;;;4992041;28;20463;-80
2022/11/14 18:08:02;;;;;;;6.23;4.97;;;12.50;99.90;;;;;;4992597;28;20498;-80
2022/11/14 18:10:29;;;;;;;8.90;5.57;;;12.50;99.90;;;;;;4992921;28;20550;-80
2022/11/14 18:12:55;;;;;;;9.33;6.27;;;12.50;99.90;;;;;;4996538;28;20486;-80
2022/11/14 18:15:23;;;;;;;12.43;6.67;;;12.40;99.90;;;;;;4996037;28;20458;-81
2022/11/14 18:17:51;;;;;;;9.53;5.80;;;12.30;99.90;;;;;;4994711;28;20451;-80